Time;durP1;ratioP1;P1;durP2;ratioP2;P2;SDS_P1;SDS_P2;PMS_P1;PMS_P2;Temp;Humidity;BMP_temperature;BMP_pressure;BME280_temperature;BME280_humidity;BME280_pressure;Samples;Min_cycle;Max_cycle;Signal;HPM_P1;HPM_P2
2024/02/11 00:03:15;;;;;;;26.13;17.97;;;;;;;14.11;62.76;95963.81;6998633;28;20246;-86
2024/02/11 00:06:38;;;;;;;24.93;18.40;;;;;;;14.13;62.72;95969.75;6998703;28;20278;-87
2024/02/11 00:10:00;;;;;;;25.17;18.13;;;;;;;13.98;63.56;95972.72;6998101;28;20706;-87
2024/02/11 00:13:21;;;;;;;24.27;18.07;;;;;;;14.18;63.36;95980.50;6997634;28;20202;-87
2024/02/11 00:16:44;;;;;;;31.03;19.33;;;;;;;13.95;63.92;95979.50;6997117;28;20230;-87
2024/02/11 00:20:09;;;;;;;25.13;18.10;;;;;;;14.06;63.37;95944.94;6997715;28;20197;-86
2024/02/11 00:23:34;;;;;;;25.00;19.23;;;;;;;13.72;62.70;95863.16;6998116;28;20251;-86
2024/02/11 00:26:56;;;;;;;25.73;18.83;;;;;;;14.38;63.08;95975.56;6997932;28;20221;-87
2024/02/11 00:30:19;;;;;;;26.83;19.57;;;;;;;14.45;62.70;95981.41;6997127;28;20792;-86
2024/02/11 00:33:41;;;;;;;22.97;16.47;;;;;;;14.63;62.50;95985.97;6997510;28;20217;-86
2024/02/11 00:37:03;;;;;;;24.87;17.23;;;;;;;14.40;61.95;95983.41;6996814;28;20217;-86
2024/02/11 00:40:26;;;;;;;26.33;17.50;;;;;;;14.16;62.37;95988.91;6997904;28;20201;-87
2024/02/11 00:43:50;;;;;;;28.50;18.97;;;;;;;14.32;62.14;95989.50;6996163;28;20288;-86
2024/02/11 00:47:11;;;;;;;25.43;19.27;;;;;;;14.01;62.83;95985.66;6996761;28;20289;-86
2024/02/11 00:50:34;;;;;;;25.80;18.07;;;;;;;14.31;62.62;96004.97;6997111;28;20221;-86
2024/02/11 00:53:56;;;;;;;32.73;22.40;;;;;;;13.78;63.36;96008.19;6997665;28;20292;-87
2024/02/11 00:57:19;;;;;;;29.53;19.10;;;;;;;13.77;64.20;96009.28;6996242;28;20717;-87
2024/02/11 01:00:44;;;;;;;28.67;19.90;;;;;;;13.69;63.62;95950.41;6997263;28;20296;-86
2024/02/11 01:04:06;;;;;;;30.37;21.13;;;;;;;14.09;63.43;96004.75;7001472;28;20664;-86
2024/02/11 01:07:30;;;;;;;27.27;20.33;;;;;;;13.84;63.33;95950.97;7002235;28;20578;-87
2024/02/11 01:10:52;;;;;;;29.97;20.83;;;;;;;14.42;63.03;96019.16;7002070;28;20229;-86
2024/02/11 01:14:14;;;;;;;28.13;20.67;;;;;;;14.33;62.98;96027.16;7002229;28;20203;-86
2024/02/11 01:17:36;;;;;;;26.00;19.83;;;;;;;14.17;63.04;96031.16;7001155;28;20266;-86
2024/02/11 01:20:57;;;;;;;29.00;19.50;;;;;;;14.27;63.09;96033.75;7001731;28;20230;-86
2024/02/11 01:24:19;;;;;;;30.23;18.73;;;;;;;14.26;63.09;96004.22;7003078;28;20201;-87
2024/02/11 01:27:40;;;;;;;24.47;19.97;;;;;;;14.30;63.06;96030.47;7002126;28;20275;-87
2024/02/11 01:31:04;;;;;;;25.43;18.13;;;;;;;14.62;62.19;96037.81;7002731;28;20249;-86
2024/02/11 01:34:25;;;;;;;25.77;18.30;;;;;;;14.44;62.45;96049.47;7003267;28;20266;-86
2024/02/11 01:37:47;;;;;;;26.60;18.47;;;;;;;14.56;62.37;96042.50;7002416;28;20638;-86
2024/02/11 01:41:08;;;;;;;22.50;16.87;;;;;;;14.57;61.70;96035.97;7002777;28;20231;-86
2024/02/11 01:44:30;;;;;;;26.63;18.30;;;;;;;14.35;61.95;96024.97;7003283;28;20251;-86
2024/02/11 01:47:53;;;;;;;24.93;16.73;;;;;;;14.56;62.04;96044.38;7003185;28;20251;-86
2024/02/11 01:51:17;;;;;;;24.30;18.07;;;;;;;13.79;63.56;96029.56;7001200;28;20229;-86
2024/02/11 01:54:40;;;;;;;27.13;18.37;;;;;;;14.21;63.13;96034.94;7002635;28;20209;-86
2024/02/11 01:58:02;;;;;;;30.00;20.13;;;;;;;14.06;63.22;96026.19;7001769;28;20710;-86
2024/02/11 02:01:26;;;;;;;29.80;19.60;;;;;;;14.07;63.64;96035.94;7002529;28;20204;-86
2024/02/11 02:04:49;;;;;;;30.17;18.97;;;;;;;14.19;63.31;96029.00;7001808;28;20205;-86
2024/02/11 02:08:10;;;;;;;25.43;18.30;;;;;;;14.41;62.78;96037.34;7002447;28;20256;-86
2024/02/11 02:11:33;;;;;;;25.60;17.90;;;;;;;14.36;62.10;96021.16;7002650;28;20716;-87
2024/02/11 02:14:55;;;;;;;29.73;19.43;;;;;;;13.83;63.43;96041.44;7001348;28;20225;-86
2024/02/11 02:18:16;;;;;;;28.60;19.70;;;;;;;14.16;63.16;96036.91;7001460;28;20610;-86
2024/02/11 02:21:45;;;;;;;27.47;19.00;;;;;;;14.04;63.56;96048.16;7002144;28;20233;-86
2024/02/11 02:25:07;;;;;;;25.73;18.80;;;;;;;14.04;64.12;96037.31;7002054;28;20320;-86
2024/02/11 02:28:29;;;;;;;28.77;19.63;;;;;;;14.28;63.05;96023.72;7000777;28;20707;-86
2024/02/11 02:31:50;;;;;;;27.53;19.37;;;;;;;14.37;63.33;96044.44;7001719;28;20383;-86
2024/02/11 02:35:21;;;;;;;29.17;18.67;;;;;;;13.92;62.68;95952.22;7001520;28;20342;-86
2024/02/11 02:38:44;;;;;;;27.57;18.50;;;;;;;14.08;62.91;96030.22;7001344;28;20267;-86
2024/02/11 02:42:06;;;;;;;21.87;16.67;;;;;;;14.21;63.44;96047.69;7005939;28;20674;-87
2024/02/11 02:45:27;;;;;;;24.87;18.07;;;;;;;14.38;62.77;96047.94;7002234;28;20299;-86
2024/02/11 02:48:50;;;;;;;27.97;17.97;;;;;;;14.12;63.30;96052.13;7000190;28;20224;-87
2024/02/11 02:52:12;;;;;;;26.33;18.37;;;;;;;14.32;62.89;96057.25;7001577;28;20607;-86
2024/02/11 02:55:35;;;;;;;25.13;17.53;;;;;;;14.34;62.91;96058.56;7000230;28;20286;-86
2024/02/11 02:58:56;;;;;;;23.77;17.67;;;;;;;14.37;62.67;96065.31;7000309;28;20544;-88
2024/02/11 03:02:18;;;;;;;28.23;19.20;;;;;;;13.69;64.33;96059.47;7000669;28;20289;-86
2024/02/11 03:05:41;;;;;;;28.77;19.73;;;;;;;13.68;65.74;96057.09;7000890;28;20201;-86
2024/02/11 03:09:06;;;;;;;30.23;19.77;;;;;;;14.22;64.36;96058.22;6999896;28;20245;-86
2024/02/11 03:12:29;;;;;;;27.80;19.33;;;;;;;14.25;63.83;96060.34;7000223;28;20292;-86
2024/02/11 03:15:51;;;;;;;26.60;19.20;;;;;;;14.29;64.02;96069.47;7001349;28;20672;-86
2024/02/11 03:19:14;;;;;;;26.57;19.00;;;;;;;14.16;63.63;96053.16;7000177;28;20231;-86
2024/02/11 03:22:35;;;;;;;29.17;19.83;;;;;;;14.35;63.59;96071.03;7000397;28;20198;-86
2024/02/11 03:25:57;;;;;;;27.53;19.57;;;;;;;14.28;63.86;96075.22;7001064;28;20356;-84
2024/02/11 03:29:19;;;;;;;30.53;18.93;;;;;;;14.47;63.47;96081.41;6983530;28;20331;-84
2024/02/11 03:32:41;;;;;;;28.30;19.87;;;;;;;14.55;62.90;96095.09;7000250;28;20225;-83
2024/02/11 03:36:04;;;;;;;27.57;19.60;;;;;;;14.53;63.16;96104.63;7000801;28;20229;-83
2024/02/11 03:39:25;;;;;;;26.57;17.13;;;;;;;14.50;62.81;96100.59;7000545;28;20273;-85
2024/02/11 03:42:47;;;;;;;9.30;7.77;;;;;;;13.97;63.93;96103.78;7001623;28;20697;-84
2024/02/11 03:46:10;;;;;;;14.57;5.37;;;;;;;13.45;65.86;96118.25;7000741;28;20234;-83
2024/02/11 03:49:31;;;;;;;4.47;4.00;;;;;;;13.31;65.63;96127.34;6996460;28;20288;-86
2024/02/11 03:52:53;;;;;;;2.97;2.63;;;;;;;13.19;65.08;96151.28;6998708;28;20316;-86
2024/02/11 03:56:14;;;;;;;2.47;2.27;;;;;;;12.91;64.92;96157.44;6999844;28;20224;-86
2024/02/11 03:59:36;;;;;;;2.27;1.90;;;;;;;12.70;64.66;96169.53;6999801;28;20288;-86
2024/02/11 04:02:59;;;;;;;2.43;1.40;;;;;;;12.92;62.36;96188.84;6999493;28;20225;-86
2024/02/11 04:06:21;;;;;;;1.90;1.57;;;;;;;12.61;62.25;96199.06;6999672;28;20228;-87
2024/02/11 04:09:43;;;;;;;1.10;1.10;;;;;;;12.85;61.99;96189.16;6999650;28;20209;-86
2024/02/11 04:13:04;;;;;;;1.17;1.17;;;;;;;12.65;61.73;96202.00;7000317;28;20266;-86
2024/02/11 04:16:34;;;;;;;1.10;1.10;;;;;;;12.61;61.66;96193.66;6999780;28;20325;-86
2024/02/11 04:19:57;;;;;;;1.20;1.20;;;;;;;12.32;63.41;96222.47;7003114;28;20244;-87
2024/02/11 04:23:19;;;;;;;1.20;1.20;;;;;;;12.25;62.71;96224.69;7017719;28;20221;-87
2024/02/11 04:26:41;;;;;;;1.57;1.30;;;;;;;12.25;62.20;96213.88;7018499;28;20225;-86
2024/02/11 04:30:03;;;;;;;1.33;1.20;;;;;;;12.63;62.49;96240.13;7005664;28;20362;-86
2024/02/11 04:33:25;;;;;;;1.20;1.20;;;;;;;12.76;62.21;96252.22;6997560;28;20225;-85
2024/02/11 04:36:50;;;;;;;1.23;1.23;;;;;;;12.62;62.18;96243.13;6995825;28;20274;-86
2024/02/11 04:40:12;;;;;;;1.10;1.10;;;;;;;12.37;62.58;96254.88;7001781;28;20214;-86
2024/02/11 04:43:35;;;;;;;1.20;1.20;;;;;;;12.61;62.91;96257.69;7002501;28;20201;-86
2024/02/11 04:46:56;;;;;;;1.10;1.10;;;;;;;12.15;63.13;96265.22;7002230;28;20266;-86
2024/02/11 04:50:19;;;;;;;1.20;1.20;;;;;;;12.17;62.20;96278.47;7002319;28;20300;-86
2024/02/11 04:53:42;;;;;;;1.20;1.20;;;;;;;12.44;62.33;96262.66;7002385;28;20713;-86
2024/02/11 04:57:04;;;;;;;1.30;1.30;;;;;;;12.42;62.40;96279.16;6976763;28;20222;-86
2024/02/11 05:00:26;;;;;;;1.10;1.10;;;;;;;12.08;61.71;96235.00;7002689;28;20292;-86
2024/02/11 05:03:47;;;;;;;1.20;1.20;;;;;;;12.40;61.38;96277.81;7001656;28;20781;-86
2024/02/11 05:07:09;;;;;;;1.10;1.10;;;;;;;12.11;61.72;96271.47;7001004;28;20281;-86
2024/02/11 05:10:34;;;;;;;1.40;1.40;;;;;;;12.11;62.60;96295.78;7001997;28;20327;-86
2024/02/11 05:13:56;;;;;;;1.23;1.23;;;;;;;11.91;62.53;96296.63;7002224;28;20201;-86
2024/02/11 05:17:17;;;;;;;2.63;1.40;;;;;;;12.29;60.98;96298.69;7002085;28;20364;-88
2024/02/11 05:20:40;;;;;;;1.20;1.20;;;;;;;12.30;60.73;96303.00;7001866;28;20209;-86
2024/02/11 05:24:02;;;;;;;1.40;1.40;;;;;;;12.41;60.76;96306.47;7001042;28;20199;-86
2024/02/11 05:27:24;;;;;;;1.30;1.30;;;;;;;12.57;60.81;96303.41;7000571;28;20260;-86
2024/02/11 05:30:48;;;;;;;1.20;1.20;;;;;;;11.90;61.89;96318.50;6984531;28;20343;-86
2024/02/11 05:34:10;;;;;;;1.27;1.27;;;;;;;12.26;60.77;96317.31;7001284;28;20208;-86
2024/02/11 05:37:31;;;;;;;1.20;1.20;;;;;;;11.94;61.13;96316.88;7001191;28;20229;-86
2024/02/11 05:40:56;;;;;;;1.30;1.30;;;;;;;12.25;60.05;96330.03;7001593;28;20335;-86
2024/02/11 05:44:19;;;;;;;1.43;1.40;;;;;;;12.38;59.76;96334.00;7001200;28;20219;-86
2024/02/11 05:47:41;;;;;;;1.17;1.17;;;;;;;12.25;59.29;96313.00;7000269;28;20350;-86
2024/02/11 05:51:02;;;;;;;1.20;1.20;;;;;;;12.11;61.05;96347.09;6999628;28;20264;-86
2024/02/11 05:54:24;;;;;;;1.30;1.30;;;;;;;12.27;59.29;96345.97;6999079;28;20244;-86
2024/02/11 05:57:47;;;;;;;1.40;1.40;;;;;;;12.36;58.94;96350.53;6999911;28;20735;-86
2024/02/11 06:01:09;;;;;;;1.30;1.30;;;;;;;12.37;58.27;96325.13;7001444;28;20284;-87
2024/02/11 06:04:31;;;;;;;1.40;1.40;;;;;;;12.09;58.85;96358.16;7003883;28;20293;-86
2024/02/11 06:07:54;;;;;;;1.40;1.40;;;;;;;11.26;59.62;96304.78;7004849;28;20268;-86
2024/02/11 06:11:16;;;;;;;1.43;1.43;;;;;;;11.30;60.58;96361.69;7004963;28;20225;-86
2024/02/11 06:14:38;;;;;;;1.27;1.27;;;;;;;11.76;59.99;96368.75;7006549;28;20288;-87
2024/02/11 06:18:01;;;;;;;1.90;1.80;;;;;;;11.56;59.90;96357.94;7004735;28;20253;-86
2024/02/11 06:21:22;;;;;;;1.50;1.40;;;;;;;11.31;60.51;96356.03;7006504;28;20433;-86
2024/02/11 06:24:45;;;;;;;1.33;1.33;;;;;;;11.71;59.68;96385.75;7007897;28;20204;-86
2024/02/11 06:28:08;;;;;;;1.60;1.60;;;;;;;11.17;60.93;96378.41;7006278;28;20228;-86
2024/02/11 06:31:30;;;;;;;1.63;1.63;;;;;;;11.18;60.87;96393.50;7007952;28;20225;-87
2024/02/11 06:35:02;;;;;;;1.50;1.50;;;;;;;11.09;60.02;96341.19;7010951;28;20243;-85
2024/02/11 06:38:24;;;;;;;1.70;1.60;;;;;;;11.35;59.24;96337.41;7008590;28;20217;-86
2024/02/11 06:41:48;;;;;;;1.50;1.50;;;;;;;11.22;59.20;96348.75;7009203;28;20202;-84
2024/02/11 06:45:12;;;;;;;1.70;1.60;;;;;;;11.24;60.10;96406.72;7006799;28;20205;-86
2024/02/11 06:48:34;;;;;;;1.60;1.50;;;;;;;10.92;60.06;96319.06;7007131;28;20224;-83
2024/02/11 06:51:57;;;;;;;1.60;1.60;;;;;;;11.50;58.80;96350.88;7006734;28;20224;-88
2024/02/11 06:58:57;;;;;;;1.53;1.53;;;;;;;10.99;59.03;96319.59;7003034;28;20218;-85
2024/02/11 07:02:19;;;;;;;1.60;1.60;;;;;;;11.01;58.83;96347.09;7013555;28;20221;-86
2024/02/11 07:05:41;;;;;;;1.60;1.60;;;;;;;10.90;59.24;96357.03;7017114;28;20202;-85
2024/02/11 07:09:04;;;;;;;1.97;1.87;;;;;;;10.72;59.62;96354.03;7017907;28;20202;-87
2024/02/11 07:12:31;;;;;;;1.67;1.67;;;;;;;10.45;59.65;96297.63;7016233;28;20726;-85
2024/02/11 07:16:31;;;;;;;1.80;1.70;;;;;;;10.99;60.88;96449.00;7018713;28;20209;-87
2024/02/11 07:19:53;;;;;;;2.60;2.10;;;;;;;10.24;61.80;96408.22;7004471;28;20208;-85
2024/02/11 07:23:15;;;;;;;2.20;2.10;;;;;;;10.31;62.11;96363.03;7007124;28;20205;-85
2024/02/11 07:26:38;;;;;;;2.07;1.97;;;;;;;9.89;62.79;96371.13;7006273;28;20776;-86
2024/02/11 07:30:00;;;;;;;2.33;2.13;;;;;;;10.87;61.42;96472.66;7004731;28;20229;-85
2024/02/11 07:33:23;;;;;;;2.67;2.00;;;;;;;10.54;61.09;96370.66;7010929;28;20218;-85
2024/02/11 07:36:44;;;;;;;2.40;2.20;;;;;;;10.65;60.71;96392.00;7001529;28;20249;-86
2024/02/11 07:40:09;;;;;;;2.50;2.30;;;;;;;10.67;61.42;96389.03;7010190;28;20228;-83
2024/02/11 07:43:32;;;;;;;2.50;2.30;;;;;;;11.61;59.88;96471.28;6987716;28;20666;-85
2024/02/11 07:46:54;;;;;;;2.97;2.77;;;;;;;11.04;60.02;96427.44;6988523;28;20240;-83
2024/02/11 07:50:18;;;;;;;3.43;2.90;;;;;;;11.41;59.82;96473.91;7004752;28;20250;-85
2024/02/11 07:53:44;;;;;;;2.50;2.30;;;;;;;11.43;59.87;96477.97;7004492;28;20221;-83
2024/02/11 07:57:05;;;;;;;3.13;2.50;;;;;;;11.26;59.33;96436.09;7009917;28;20228;-87
2024/02/11 08:00:31;;;;;;;3.20;2.90;;;;;;;11.28;59.43;96455.56;6995922;28;20291;-85
2024/02/11 08:03:53;;;;;;;3.40;3.10;;;;;;;10.52;61.74;96422.09;6980854;28;20224;-85
2024/02/11 08:07:14;;;;;;;3.63;3.33;;;;;;;10.91;61.71;96471.03;6977399;28;20222;-84
2024/02/11 08:10:36;;;;;;;4.13;3.60;;;;;;;10.24;62.20;96378.63;6982121;28;20214;-84
2024/02/11 08:13:58;;;;;;;4.07;3.53;;;;;;;11.38;60.88;96501.41;6980425;28;20392;-85
2024/02/11 08:17:21;;;;;;;3.43;3.13;;;;;;;11.12;60.42;96464.66;6980073;28;20228;-85
2024/02/11 08:20:43;;;;;;;5.87;3.93;;;;;;;10.83;60.80;96456.22;6981652;28;20296;-84
2024/02/11 08:24:06;;;;;;;5.40;3.73;;;;;;;11.23;60.83;96455.53;6982655;28;20207;-84
2024/02/11 08:27:28;;;;;;;4.30;3.47;;;;;;;11.19;60.22;96441.78;6981978;28;20233;-85
2024/02/11 08:30:49;;;;;;;5.00;3.50;;;;;;;10.61;61.04;96420.53;6984106;28;20211;-84
2024/02/11 08:34:12;;;;;;;4.10;3.50;;;;;;;11.53;60.06;96510.38;6983472;28;20245;-84
2024/02/11 08:37:34;;;;;;;4.07;3.67;;;;;;;11.41;60.44;96512.50;6986568;28;20233;-85
2024/02/11 08:40:55;;;;;;;5.57;3.60;;;;;;;11.54;60.32;96511.19;6986866;28;20222;-84
2024/02/11 08:44:18;;;;;;;3.70;2.83;;;;;;;10.87;60.46;96467.28;6984669;28;20723;-84
2024/02/11 08:47:40;;;;;;;3.70;3.40;;;;;;;11.20;61.48;96507.28;6983417;28;20218;-84
2024/02/11 08:51:03;;;;;;;4.73;3.40;;;;;;;11.54;59.57;96517.41;6983243;28;20620;-84
2024/02/11 08:54:24;;;;;;;4.93;3.43;;;;;;;11.37;59.77;96478.22;6981949;28;20325;-85
2024/02/11 08:57:47;;;;;;;6.83;3.47;;;;;;;11.84;59.64;96530.16;6980930;28;20707;-84
2024/02/11 09:01:09;;;;;;;4.70;4.00;;;;;;;11.58;59.75;96478.03;6983064;28;20277;-84
2024/02/11 09:04:31;;;;;;;3.47;3.17;;;;;;;11.47;59.06;96532.22;6983344;28;20684;-84
2024/02/11 09:07:54;;;;;;;4.77;3.07;;;;;;;11.57;59.45;96537.63;6982613;28;20701;-86
2024/02/11 09:11:16;;;;;;;4.70;3.67;;;;;;;11.79;59.53;96543.63;6982327;28;20214;-84
2024/02/11 09:14:39;;;;;;;4.07;3.30;;;;;;;12.35;57.85;96545.31;6982579;28;20230;-85
2024/02/11 09:18:00;;;;;;;3.47;3.17;;;;;;;11.90;57.74;96489.41;6980798;28;20238;-86
2024/02/11 09:21:22;;;;;;;8.13;3.80;;;;;;;11.82;59.01;96505.31;6980805;28;20253;-85
2024/02/11 09:24:45;;;;;;;3.87;3.50;;;;;;;11.77;58.87;96483.72;6983825;28;20692;-85
2024/02/11 09:28:06;;;;;;;7.17;3.80;;;;;;;12.01;59.19;96547.75;6985764;28;20237;-86
2024/02/11 09:31:28;;;;;;;5.53;3.73;;;;;;;12.45;57.52;96548.03;6985759;28;20741;-85
2024/02/11 09:34:50;;;;;;;3.60;3.30;;;;;;;12.55;57.71;96521.78;6987410;28;20202;-85
2024/02/11 09:38:14;;;;;;;5.33;3.70;;;;;;;12.30;57.70;96496.69;6986824;28;20263;-85
2024/02/11 09:41:37;;;;;;;5.43;3.67;;;;;;;12.54;58.01;96549.91;6986330;28;20202;-85
2024/02/11 09:45:01;;;;;;;4.70;3.67;;;;;;;12.27;57.69;96508.06;6990258;28;20210;-86
2024/02/11 09:48:23;;;;;;;4.37;3.37;;;;;;;12.19;57.94;96474.28;6989757;28;20308;-85
2024/02/11 09:51:45;;;;;;;5.13;3.80;;;;;;;12.99;55.69;96549.03;6988415;28;20206;-87
2024/02/11 09:55:09;;;;;;;4.93;3.50;;;;;;;12.91;55.73;96525.22;6986773;28;20214;-85
2024/02/11 09:58:32;;;;;;;4.60;3.33;;;;;;;13.37;55.09;96526.69;6988504;28;20214;-86
2024/02/11 10:01:55;;;;;;;8.30;3.93;;;;;;;12.97;55.92;96534.97;6987909;28;20371;-85
2024/02/11 10:05:17;;;;;;;6.00;3.77;;;;;;;13.12;56.09;96579.03;6988202;28;20206;-85
2024/02/11 10:08:39;;;;;;;3.60;3.30;;;;;;;13.25;56.29;96583.03;6988548;28;20252;-85
2024/02/11 10:12:02;;;;;;;4.37;3.37;;;;;;;12.94;55.36;96555.25;6988298;28;20226;-85
2024/02/11 10:15:26;;;;;;;3.80;3.50;;;;;;;13.38;54.72;96536.44;6989189;28;20198;-85
2024/02/11 10:18:50;;;;;;;5.30;3.90;;;;;;;13.04;55.55;96603.91;6999044;28;20234;-87
2024/02/11 10:22:12;;;;;;;3.87;3.47;;;;;;;12.78;55.31;96536.59;6995799;28;20273;-86
2024/02/11 10:25:34;;;;;;;5.87;4.63;;;;;;;13.06;55.59;96549.56;6992322;28;20238;-85
2024/02/11 10:28:55;;;;;;;7.10;3.80;;;;;;;13.58;53.34;96539.06;6991979;28;20198;-85
2024/02/11 10:32:18;;;;;;;5.57;3.87;;;;;;;13.33;54.89;96541.91;6991873;28;20276;-85
2024/02/11 10:35:42;;;;;;;6.70;4.03;;;;;;;13.59;54.63;96565.03;6995563;28;20206;-88
2024/02/11 10:39:05;;;;;;;6.33;4.50;;;;;;;12.94;54.99;96549.00;7002411;28;20226;-85
2024/02/11 10:42:27;;;;;;;6.70;4.03;;;;;;;12.87;55.11;96540.38;7003550;28;20187;-87
2024/02/11 10:45:49;;;;;;;5.13;3.53;;;;;;;12.84;54.98;96551.72;6992059;28;20199;-86
2024/02/11 10:49:12;;;;;;;4.33;3.67;;;;;;;13.87;54.17;96610.41;6981613;28;20285;-85
2024/02/11 10:52:39;;;;;;;4.07;3.67;;;;;;;13.22;53.11;96497.03;6982980;28;20236;-85
2024/02/11 10:56:04;;;;;;;6.07;4.30;;;;;;;13.70;54.71;96597.19;6978348;28;20233;-86
2024/02/11 10:59:28;;;;;;;6.47;4.60;;;;;;;13.50;54.70;96542.34;6981826;28;20206;-84
2024/02/11 11:02:57;;;;;;;4.10;3.63;;;;;;;14.13;52.64;96604.56;6982045;28;20695;-83
2024/02/11 11:06:22;;;;;;;7.50;3.83;;;;;;;13.24;54.71;96549.78;6978651;28;20225;-84
2024/02/11 11:09:45;;;;;;;5.90;3.67;;;;;;;14.28;53.65;96609.09;6980538;28;20227;-84
2024/02/11 11:13:06;;;;;;;5.40;4.30;;;;;;;14.24;52.91;96619.69;6980350;28;20229;-84
2024/02/11 11:16:29;;;;;;;6.03;3.73;;;;;;;14.58;51.99;96614.31;6979203;28;20276;-83
2024/02/11 11:19:52;;;;;;;4.83;3.77;;;;;;;14.47;52.17;96615.47;6982340;28;20208;-84
2024/02/11 11:23:15;;;;;;;5.03;3.70;;;;;;;13.81;52.88;96616.94;7005677;28;20206;-85
2024/02/11 11:26:36;;;;;;;8.40;3.83;;;;;;;13.69;54.27;96621.88;7018729;28;20648;-81
2024/02/11 11:29:58;;;;;;;6.63;4.47;;;;;;;14.06;53.06;96589.69;7008516;28;20641;-82
2024/02/11 11:33:20;;;;;;;6.47;3.70;;;;;;;13.87;52.68;96603.06;7009810;28;20252;-84
2024/02/11 11:36:42;;;;;;;6.53;3.37;;;;;;;13.00;53.15;96527.13;7011395;28;20247;-83
2024/02/11 11:40:07;;;;;;;5.37;3.40;;;;;;;13.63;52.35;96621.06;7009659;28;20282;-86
2024/02/11 11:43:32;;;;;;;6.20;3.90;;;;;;;13.75;52.73;96588.25;7008817;28;20186;-84
2024/02/11 11:46:54;;;;;;;5.07;3.37;;;;;;;14.70;51.23;96615.53;7005251;28;20703;-82
2024/02/11 11:50:19;;;;;;;8.50;3.70;;;;;;;14.83;50.18;96616.78;7005107;28;20256;-82
2024/02/11 11:53:44;;;;;;;4.37;3.93;;;;;;;15.27;49.56;96607.41;6997505;28;20241;-83
2024/02/11 11:57:14;;;;;;;5.20;3.30;;;;;;;15.06;49.40;96599.75;7005889;28;20244;-83
2024/02/11 12:00:35;;;;;;;4.03;3.07;;;;;;;15.92;48.83;96611.31;6995700;28;20202;-83
2024/02/11 12:03:57;;;;;;;4.90;3.30;;;;;;;15.91;46.46;96555.31;7005324;28;20291;-83
2024/02/11 12:07:19;;;;;;;3.30;3.00;;;;;;;16.28;46.49;96585.22;7006236;28;20275;-82
2024/02/11 12:10:40;;;;;;;4.13;2.80;;;;;;;16.23;45.13;96596.97;7006277;28;20226;-84
2024/02/11 12:14:03;;;;;;;4.83;3.07;;;;;;;15.77;47.59;96595.19;6995978;28;20226;-83
2024/02/11 12:17:25;;;;;;;4.47;2.40;;;;;;;16.30;44.48;96591.19;6994855;28;20406;-80
2024/02/11 12:20:48;;;;;;;4.87;2.70;;;;;;;16.30;45.59;96583.03;7000042;28;20199;-82
2024/02/11 12:24:11;;;;;;;2.60;2.40;;;;;;;16.47;43.47;96547.97;6987388;28;20256;-82
2024/02/11 12:27:32;;;;;;;3.47;2.40;;;;;;;16.47;44.13;96594.22;7000423;28;20221;-82
2024/02/11 12:31:07;;;;;;;2.30;2.10;;;;;;;16.94;42.85;96583.09;6997165;28;20244;-82
2024/02/11 12:34:29;;;;;;;3.53;2.30;;;;;;;16.26;45.11;96599.13;7005723;28;20227;-82
2024/02/11 12:37:51;;;;;;;2.70;2.50;;;;;;;16.07;45.17;96589.34;6993035;28;20243;-83
2024/02/11 12:41:14;;;;;;;3.17;2.80;;;;;;;16.36;44.09;96577.22;7012794;28;20208;-84
2024/02/11 12:44:36;;;;;;;2.83;2.40;;;;;;;16.36;44.25;96590.81;6997036;28;20280;-82
2024/02/11 12:47:59;;;;;;;2.40;2.20;;;;;;;15.61;45.21;96610.84;6997494;28;20227;-82
2024/02/11 12:51:21;;;;;;;2.27;2.10;;;;;;;15.87;44.86;96598.56;7002387;28;20623;-83
2024/02/11 12:54:43;;;;;;;3.90;2.73;;;;;;;15.88;44.42;96618.41;7002782;28;20310;-82
2024/02/11 12:58:05;;;;;;;2.97;2.30;;;;;;;14.85;46.17;96584.75;6999980;28;20718;-83
2024/02/11 13:01:28;;;;;;;2.17;1.97;;;;;;;15.17;45.33;96610.22;7009081;28;20213;-85
2024/02/11 13:04:51;;;;;;;4.07;2.67;;;;;;;15.40;45.91;96612.19;7008001;28;20316;-85
2024/02/11 13:08:12;;;;;;;2.27;2.07;;;;;;;15.35;45.92;96604.09;7003811;28;20239;-81
2024/02/11 13:11:34;;;;;;;8.73;4.13;;;;;;;15.46;47.00;96596.66;6999753;28;20217;-85
2024/02/11 13:14:56;;;;;;;4.70;3.20;;;;;;;15.06;47.69;96605.19;7002307;28;20220;-84
2024/02/11 13:18:18;;;;;;;7.17;4.73;;;;;;;15.47;46.42;96599.09;7004868;28;20237;-83
2024/02/11 13:21:44;;;;;;;1.90;1.80;;;;;;;15.56;45.19;96599.22;6999229;28;20196;-83
2024/02/11 13:25:08;;;;;;;1.90;1.70;;;;;;;15.70;44.17;96600.94;7001260;28;20222;-81
2024/02/11 13:28:29;;;;;;;2.00;1.90;;;;;;;15.03;45.76;96600.31;6985238;28;20228;-82
2024/02/11 13:31:51;;;;;;;1.73;1.63;;;;;;;15.32;45.17;96603.81;6976848;28;20679;-82
2024/02/11 13:35:13;;;;;;;2.77;2.17;;;;;;;15.79;44.02;96599.22;6977200;28;20584;-82
2024/02/11 13:38:36;;;;;;;2.77;2.10;;;;;;;16.09;44.11;96598.81;6998012;28;20359;-81
2024/02/11 13:41:57;;;;;;;2.23;2.13;;;;;;;16.00;43.59;96520.94;6993241;28;20198;-82
2024/02/11 13:45:19;;;;;;;2.87;2.57;;;;;;;16.29;43.43;96595.78;6996688;28;20192;-82
2024/02/11 13:48:41;;;;;;;2.43;2.10;;;;;;;15.78;44.86;96610.38;6979443;28;20644;-81
2024/02/11 13:52:03;;;;;;;2.13;1.90;;;;;;;15.18;46.12;96605.59;6989969;28;20206;-81
2024/02/11 13:55:26;;;;;;;2.50;2.30;;;;;;;15.24;46.28;96618.84;6985503;28;20761;-82
2024/02/11 13:58:47;;;;;;;2.70;2.10;;;;;;;14.67;47.43;96628.84;6989716;28;20295;-81
2024/02/11 14:02:09;;;;;;;3.97;1.80;;;;;;;15.05;47.06;96617.94;7001407;28;20206;-82
2024/02/11 14:05:30;;;;;;;1.90;1.80;;;;;;;15.68;46.07;96616.75;7011201;28;20269;-84
2024/02/11 14:08:52;;;;;;;1.93;1.83;;;;;;;16.01;45.48;96614.97;7008176;28;20711;-82
2024/02/11 14:12:15;;;;;;;2.10;1.90;;;;;;;15.88;45.86;96618.41;7008413;28;20554;-82
2024/02/11 14:15:39;;;;;;;2.47;2.27;;;;;;;15.75;45.83;96628.06;7008135;28;20285;-83
2024/02/11 14:19:03;;;;;;;2.00;1.80;;;;;;;15.67;45.89;96619.75;7010140;28;20296;-82
2024/02/11 14:22:25;;;;;;;2.13;1.80;;;;;;;16.08;45.15;96629.00;7003215;28;20222;-82
2024/02/11 14:25:48;;;;;;;1.83;1.73;;;;;;;15.34;45.50;96610.63;7004747;28;20243;-82
2024/02/11 14:29:13;;;;;;;3.10;2.00;;;;;;;15.66;45.73;96629.00;7011883;28;20665;-83
2024/02/11 14:32:35;;;;;;;1.80;1.70;;;;;;;15.87;45.75;96611.34;7002418;28;20210;-83
2024/02/11 14:35:56;;;;;;;1.93;1.83;;;;;;;15.10;47.60;96625.25;7010274;28;20280;-82
2024/02/11 14:39:19;;;;;;;1.60;1.50;;;;;;;15.00;47.51;96638.91;7010539;28;20238;-81
2024/02/11 14:42:41;;;;;;;1.90;1.80;;;;;;;14.46;48.82;96639.03;7011669;28;20882;-82
2024/02/11 14:46:05;;;;;;;1.87;1.77;;;;;;;14.61;48.61;96648.97;7010759;28;20358;-82
2024/02/11 14:49:27;;;;;;;2.80;1.80;;;;;;;14.85;47.59;96647.97;7010075;28;20688;-81
2024/02/11 14:52:49;;;;;;;1.80;1.70;;;;;;;14.70;48.76;96655.44;7009064;28;20206;-82
2024/02/11 14:56:10;;;;;;;3.20;2.80;;;;;;;14.68;49.37;96671.97;7011555;28;20223;-82
2024/02/11 14:59:33;;;;;;;3.53;3.17;;;;;;;14.48;49.89;96685.69;7017416;28;20203;-83
2024/02/11 15:02:56;;;;;;;3.00;1.90;;;;;;;14.98;50.06;96679.88;7009515;28;20672;-82
2024/02/11 15:06:18;;;;;;;2.30;2.10;;;;;;;15.33;49.09;96668.72;7007104;28;20238;-83
2024/02/11 15:09:39;;;;;;;2.03;1.90;;;;;;;15.51;48.44;96662.56;7007190;28;20752;-83
2024/02/11 15:13:02;;;;;;;2.10;1.90;;;;;;;15.77;48.17;96674.78;7007309;28;20337;-83
2024/02/11 15:16:23;;;;;;;3.27;1.90;;;;;;;15.78;46.85;96673.69;7003753;28;20242;-85
2024/02/11 15:19:46;;;;;;;2.17;2.00;;;;;;;15.99;46.82;96676.97;7004948;28;20649;-83
2024/02/11 15:23:08;;;;;;;4.40;3.47;;;;;;;15.70;46.35;96682.44;6989876;28;20217;-85
2024/02/11 15:26:30;;;;;;;19.60;11.20;;;;;;;15.86;45.72;96683.91;6995350;28;20318;-81
2024/02/11 15:29:51;;;;;;;17.67;10.20;;;;;;;15.73;46.22;96686.50;7005223;28;20210;-80
2024/02/11 15:33:13;;;;;;;4.10;2.53;;;;;;;15.57;46.56;96693.22;7003361;28;20293;-79
2024/02/11 15:36:35;;;;;;;2.10;2.00;;;;;;;15.49;45.46;96691.94;6996409;28;20241;-79
2024/02/11 15:39:57;;;;;;;1.90;1.80;;;;;;;15.41;45.78;96695.28;6988520;28;20753;-80
2024/02/11 15:43:19;;;;;;;1.90;1.80;;;;;;;15.30;45.84;96673.91;7013060;28;20210;-81
2024/02/11 15:46:40;;;;;;;2.33;2.20;;;;;;;15.24;45.72;96666.91;6999635;28;20306;-81
2024/02/11 15:50:02;;;;;;;3.33;2.27;;;;;;;15.16;46.05;96691.94;7005021;28;20231;-82
2024/02/11 15:53:25;;;;;;;2.50;2.30;;;;;;;14.88;45.94;96666.41;7007695;28;20238;-82